Time;durP1;ratioP1;P1;durP2;ratioP2;P2;SDS_P1;SDS_P2;PMS_P1;PMS_P2;Temp;Humidity;BMP_temperature;BMP_pressure;BME280_temperature;BME280_humidity;BME280_pressure;Samples;Min_cycle;Max_cycle;Signal;HPM_P1;HPM_P2
2023/02/24 00:01:59;;;;;;;18.30;16.07;;;10.40;99.90;;;;;;5083719;28;20192;-87
2023/02/24 00:04:27;;;;;;;18.57;16.47;;;10.50;99.90;;;;;;5067134;28;20238;-88
2023/02/24 00:06:53;;;;;;;18.40;16.50;;;10.50;99.90;;;;;;5079786;28;20180;-86
2023/02/24 00:09:22;;;;;;;18.63;16.73;;;10.50;99.90;;;;;;5079212;28;20297;-91
2023/02/24 00:11:52;;;;;;;20.23;18.23;;;10.50;99.90;;;;;;5084647;28;21460;-86
2023/02/24 00:14:18;;;;;;;20.80;18.80;;;10.60;99.90;;;;;;5062295;28;20182;-88
2023/02/24 00:16:44;;;;;;;20.13;18.10;;;10.60;99.90;;;;;;5084311;28;20193;-88
2023/02/24 00:19:22;;;;;;;19.73;17.83;;;10.60;99.90;;;;;;5081569;28;20215;-87
2023/02/24 00:21:50;;;;;;;20.47;18.30;;;10.50;99.90;;;;;;5067493;28;20193;-87
2023/02/24 00:24:16;;;;;;;18.77;17.13;;;10.50;99.90;;;;;;5088118;28;20177;-87
2023/02/24 00:26:42;;;;;;;18.73;16.83;;;10.50;99.90;;;;;;5066319;28;20180;-87
2023/02/24 00:29:11;;;;;;;18.80;16.90;;;10.40;99.90;;;;;;5083376;28;20214;-88
2023/02/24 00:31:45;;;;;;;19.00;17.10;;;10.50;99.90;;;;;;5083520;28;21433;-89
2023/02/24 00:34:11;;;;;;;19.07;17.23;;;10.50;99.90;;;;;;5095554;28;20273;-88
2023/02/24 00:36:37;;;;;;;22.83;20.43;;;10.40;99.90;;;;;;5093566;28;20186;-88
2023/02/24 00:39:09;;;;;;;22.23;19.87;;;10.40;99.90;;;;;;5092352;28;20177;-88
2023/02/24 00:41:38;;;;;;;23.37;20.90;;;10.40;99.90;;;;;;5095162;28;20202;-87
2023/02/24 00:44:08;;;;;;;24.60;22.07;;;10.30;99.90;;;;;;5066793;28;20207;-87
2023/02/24 00:46:36;;;;;;;24.27;21.73;;;10.20;99.90;;;;;;5062411;28;20185;-88
2023/02/24 00:49:04;;;;;;;23.43;20.90;;;10.10;99.90;;;;;;5082018;28;20258;-87
2023/02/24 00:51:36;;;;;;;26.03;22.73;;;10.10;99.90;;;;;;5084630;28;20184;-86
2023/02/24 00:54:02;;;;;;;24.10;21.50;;;10.00;99.90;;;;;;5085664;28;21021;-87
2023/02/24 00:56:29;;;;;;;25.77;23.07;;;10.00;99.90;;;;;;5066260;28;20286;-88
2023/02/24 00:58:56;;;;;;;27.73;24.20;;;10.00;99.90;;;;;;5084675;28;20195;-87
2023/02/24 01:01:25;;;;;;;27.20;24.30;;;9.90;99.90;;;;;;5081320;28;20250;-86
2023/02/24 01:03:54;;;;;;;27.73;23.43;;;9.90;99.90;;;;;;5079131;28;20578;-85
2023/02/24 01:06:21;;;;;;;25.47;22.73;;;9.90;99.90;;;;;;5070670;28;20179;-86
2023/02/24 01:08:49;;;;;;;26.10;23.30;;;9.90;99.90;;;;;;5085962;28;20178;-86
2023/02/24 01:14:10;;;;;;;29.13;25.53;;;10.00;99.90;;;;;;5083898;28;20231;-87
2023/02/24 01:16:36;;;;;;;28.00;25.00;;;10.00;99.90;;;;;;5085395;28;20193;-88
2023/02/24 01:19:06;;;;;;;23.07;20.30;;;9.90;99.90;;;;;;5083635;28;20185;-86
2023/02/24 01:21:33;;;;;;;27.73;22.73;;;9.90;99.90;;;;;;5066408;28;20213;-86
2023/02/24 01:23:59;;;;;;;29.27;24.13;;;10.00;99.90;;;;;;5084616;28;20637;-86
2023/02/24 01:26:25;;;;;;;28.17;25.13;;;10.10;99.90;;;;;;5082228;28;20315;-88
2023/02/24 01:28:53;;;;;;;31.50;26.20;;;10.20;99.90;;;;;;5079628;28;20194;-86
2023/02/24 01:31:22;;;;;;;28.57;24.43;;;10.20;99.90;;;;;;5088209;28;20190;-86
2023/02/24 01:33:48;;;;;;;31.23;26.97;;;10.20;99.90;;;;;;5088045;28;20236;-87
2023/02/24 01:36:16;;;;;;;32.83;27.43;;;10.20;99.90;;;;;;5085765;28;20195;-86
2023/02/24 01:38:42;;;;;;;30.07;25.33;;;10.20;99.90;;;;;;5067516;28;20177;-89
2023/02/24 01:41:15;;;;;;;34.17;28.63;;;10.20;99.90;;;;;;5084222;28;20209;-86
2023/02/24 01:44:00;;;;;;;31.90;28.43;;;10.20;99.80;;;;;;5088797;28;20179;-88
2023/02/24 01:46:37;;;;;;;33.93;29.47;;;10.20;99.40;;;;;;5087987;28;20513;-86
2023/02/24 01:49:19;;;;;;;33.80;29.20;;;10.20;99.40;;;;;;5085110;28;20725;-87
2023/02/24 01:52:03;;;;;;;36.50;30.17;;;10.20;99.90;;;;;;5066349;28;20648;-84
2023/02/24 01:54:38;;;;;;;34.57;28.50;;;10.10;99.50;;;;;;5083890;28;20426;-86
2023/02/24 01:57:04;;;;;;;35.70;28.70;;;10.10;99.80;;;;;;5084382;28;20187;-87
2023/02/24 01:59:34;;;;;;;33.43;28.37;;;10.10;99.90;;;;;;5083289;28;20199;-86
2023/02/24 02:02:06;;;;;;;31.33;26.97;;;10.10;99.80;;;;;;5085278;28;20199;-87
2023/02/24 02:04:44;;;;;;;32.90;27.87;;;10.20;99.90;;;;;;5082524;28;20656;-85
2023/02/24 02:07:14;;;;;;;33.57;28.43;;;10.20;99.90;;;;;;5084418;28;20175;-88
2023/02/24 02:09:41;;;;;;;38.67;29.57;;;10.20;99.90;;;;;;5082560;28;20207;-87
2023/02/24 02:12:08;;;;;;;36.33;31.03;;;10.20;99.90;;;;;;5092324;28;20261;-88
2023/02/24 02:14:38;;;;;;;35.13;29.50;;;10.20;99.70;;;;;;5083519;28;20194;-86
2023/02/24 02:17:26;;;;;;;31.27;26.83;;;10.10;99.40;;;;;;5085503;28;20198;-88
2023/02/24 02:20:05;;;;;;;39.67;31.63;;;10.10;99.90;;;;;;5075826;28;20204;-86
2023/02/24 02:23:23;;;;;;;42.53;31.60;;;10.10;98.70;;;;;;5064201;28;20200;-88
2023/02/24 02:26:11;;;;;;;42.73;31.97;;;10.20;97.30;;;;;;5034959;28;20580;-86
2023/02/24 02:28:39;;;;;;;37.53;30.23;;;10.10;96.80;;;;;;5086998;28;20190;-87
2023/02/24 02:31:27;;;;;;;41.60;32.30;;;10.10;98.50;;;;;;5067276;28;20684;-87
2023/02/24 02:34:08;;;;;;;37.40;29.93;;;10.00;98.30;;;;;;5085048;28;20692;-87
2023/02/24 02:37:05;;;;;;;39.33;32.37;;;10.10;98.80;;;;;;5086754;28;20841;-87
2023/02/24 02:39:40;;;;;;;35.93;30.40;;;10.00;97.80;;;;;;5089490;28;20208;-87
2023/02/24 02:42:13;;;;;;;37.97;31.53;;;10.00;98.20;;;;;;5087787;28;20248;-88
2023/02/24 02:44:54;;;;;;;36.87;30.13;;;9.90;98.40;;;;;;5085394;28;20172;-87
2023/02/24 02:47:42;;;;;;;39.83;31.60;;;9.90;98.30;;;;;;5083724;28;20323;-85
2023/02/24 02:50:25;;;;;;;39.47;30.87;;;9.80;98.30;;;;;;5088304;28;20258;-88
2023/02/24 02:53:07;;;;;;;38.47;30.60;;;9.70;99.80;;;;;;5085072;28;20850;-87
2023/02/24 02:55:47;;;;;;;37.07;29.30;;;9.70;99.90;;;;;;5066540;28;20439;-87
2023/02/24 02:58:17;;;;;;;37.20;29.53;;;9.70;99.90;;;;;;5085168;28;20185;-87
2023/02/24 03:01:00;;;;;;;37.83;29.70;;;9.70;99.80;;;;;;5080397;28;20717;-87
2023/02/24 03:03:29;;;;;;;36.27;25.87;;;9.80;99.90;;;;;;5092199;28;20204;-88
2023/02/24 03:06:16;;;;;;;41.20;30.83;;;9.80;99.90;;;;;;5082413;28;20192;-87
2023/02/24 03:08:51;;;;;;;34.60;27.87;;;9.90;99.90;;;;;;5085115;28;20172;-88
2023/02/24 03:11:19;;;;;;;34.60;27.13;;;9.90;99.90;;;;;;5088065;28;20172;-89
2023/02/24 03:13:48;;;;;;;37.70;31.90;;;9.90;99.90;;;;;;5106420;28;20195;-89
2023/02/24 03:16:17;;;;;;;38.93;30.33;;;10.00;99.40;;;;;;5104161;28;20186;-89
2023/02/24 03:18:49;;;;;;;34.27;28.60;;;10.00;98.70;;;;;;5098985;28;20678;-87
2023/02/24 03:21:31;;;;;;;32.63;27.33;;;10.00;99.60;;;;;;5088371;28;20189;-86
2023/02/24 03:24:00;;;;;;;32.53;26.33;;;10.00;99.90;;;;;;5088101;28;20162;-87
2023/02/24 03:26:48;;;;;;;30.77;26.40;;;10.00;99.60;;;;;;5085467;28;20181;-87
2023/02/24 03:29:40;;;;;;;34.40;29.23;;;10.10;99.30;;;;;;5087308;28;20560;-87
2023/02/24 03:32:14;;;;;;;37.60;29.30;;;10.10;99.10;;;;;;5086355;28;20188;-88
2023/02/24 03:34:54;;;;;;;35.77;29.97;;;10.10;98.40;;;;;;5084590;28;20217;-89
2023/02/24 03:37:27;;;;;;;33.60;27.87;;;10.00;98.30;;;;;;5087104;28;20190;-86
2023/02/24 03:40:10;;;;;;;37.57;30.73;;;10.10;98.50;;;;;;5085804;28;20492;-87
2023/02/24 03:42:38;;;;;;;39.93;31.20;;;10.00;98.60;;;;;;5075760;28;20643;-86
2023/02/24 03:45:05;;;;;;;38.40;31.43;;;10.00;98.60;;;;;;5086204;28;20553;-86
2023/02/24 03:47:32;;;;;;;40.97;30.37;;;10.00;98.50;;;;;;5092935;28;20247;-88
2023/02/24 03:49:58;;;;;;;28.27;24.70;;;9.90;99.50;;;;;;5084349;28;20201;-87
2023/02/24 03:52:35;;;;;;;30.23;25.90;;;10.00;99.40;;;;;;5069562;28;20193;-90
2023/02/24 03:55:16;;;;;;;33.13;26.73;;;10.00;99.90;;;;;;5085054;28;21368;-87
2023/02/24 03:58:03;;;;;;;30.93;26.67;;;10.00;99.90;;;;;;5067676;28;20182;-87
2023/02/24 04:01:06;;;;;;;30.90;27.37;;;10.00;99.90;;;;;;5082876;28;20218;-87
2023/02/24 04:03:37;;;;;;;33.27;27.13;;;10.00;99.90;;;;;;5084684;28;20201;-86
2023/02/24 04:06:16;;;;;;;33.87;28.07;;;10.00;99.90;;;;;;5066784;28;20182;-87
2023/02/24 04:08:47;;;;;;;37.20;28.57;;;10.10;99.70;;;;;;5087383;28;20166;-89
2023/02/24 04:11:26;;;;;;;31.57;26.43;;;10.00;99.10;;;;;;5092578;28;20207;-86
2023/02/24 04:14:05;;;;;;;30.87;26.10;;;10.00;99.60;;;;;;5067640;28;20244;-87
2023/02/24 04:16:56;;;;;;;35.53;29.70;;;10.00;99.80;;;;;;5069310;28;21847;-87
2023/02/24 04:19:26;;;;;;;33.63;27.83;;;10.00;99.60;;;;;;5070184;28;20201;-88
2023/02/24 04:21:53;;;;;;;35.40;28.00;;;9.90;99.90;;;;;;5084021;28;20265;-87
2023/02/24 04:24:22;;;;;;;33.17;28.43;;;10.00;99.90;;;;;;5090410;28;20177;-89
2023/02/24 04:26:50;;;;;;;37.13;29.20;;;10.00;99.10;;;;;;5065673;28;20184;-86
2023/02/24 04:29:22;;;;;;;38.57;31.20;;;10.00;99.60;;;;;;5085273;28;20205;-87
2023/02/24 04:31:52;;;;;;;33.00;27.83;;;9.90;99.20;;;;;;5085469;28;20224;-87
2023/02/24 04:34:18;;;;;;;39.20;31.03;;;10.00;99.40;;;;;;5085110;28;20243;-88
2023/02/24 04:36:48;;;;;;;37.23;30.67;;;10.00;97.00;;;;;;5085334;28;20254;-88
2023/02/24 04:39:17;;;;;;;38.07;31.40;;;10.00;96.60;;;;;;5089417;28;20281;-87
2023/02/24 04:41:48;;;;;;;37.23;31.63;;;9.90;97.60;;;;;;5067683;28;20199;-85
2023/02/24 04:44:18;;;;;;;40.20;30.03;;;9.80;97.30;;;;;;5087872;28;20173;-89
2023/02/24 04:46:45;;;;;;;37.33;29.97;;;9.80;98.50;;;;;;5085006;28;20244;-87
2023/02/24 04:49:11;;;;;;;35.00;29.47;;;9.80;99.30;;;;;;5084056;28;20233;-88
2023/02/24 04:51:41;;;;;;;38.13;29.53;;;9.70;99.80;;;;;;5084634;28;20194;-86
2023/02/24 04:54:19;;;;;;;37.67;30.53;;;9.70;99.80;;;;;;5081175;28;20342;-86
2023/02/24 04:56:46;;;;;;;33.87;27.53;;;9.80;99.60;;;;;;5085631;28;20184;-87
2023/02/24 04:59:13;;;;;;;35.97;28.50;;;9.80;99.50;;;;;;5090891;28;20201;-88
2023/02/24 05:01:43;;;;;;;36.13;30.00;;;9.80;99.50;;;;;;5069811;28;20205;-88
2023/02/24 05:04:10;;;;;;;39.13;31.93;;;9.80;98.90;;;;;;5083012;28;20194;-87
2023/02/24 05:06:39;;;;;;;40.70;31.87;;;9.80;98.60;;;;;;5086188;28;20208;-87
2023/02/24 05:09:12;;;;;;;39.00;29.43;;;9.80;98.10;;;;;;5069006;28;20174;-86
2023/02/24 05:11:47;;;;;;;39.63;30.33;;;9.80;99.00;;;;;;5102598;28;20190;-86
2023/02/24 05:14:15;;;;;;;37.77;29.70;;;9.80;99.10;;;;;;5097956;28;20185;-86
2023/02/24 05:16:46;;;;;;;35.20;29.20;;;9.80;98.90;;;;;;5100173;28;20174;-87
2023/02/24 05:22:01;;;;;;;33.80;28.13;;;9.90;97.80;;;;;;5084521;28;20572;-87
2023/02/24 05:24:28;;;;;;;35.00;29.67;;;9.80;97.60;;;;;;5080668;28;20175;-85
2023/02/24 05:26:58;;;;;;;36.77;29.83;;;9.90;96.90;;;;;;5081424;28;20188;-87
2023/02/24 05:29:31;;;;;;;39.70;30.80;;;9.80;97.40;;;;;;5085277;28;20638;-86
2023/02/24 05:31:58;;;;;;;35.93;29.87;;;9.80;97.70;;;;;;5075254;28;20289;-86
2023/02/24 05:34:29;;;;;;;38.00;28.23;;;9.80;98.60;;;;;;5090717;28;20535;-86
2023/02/24 05:36:57;;;;;;;34.50;26.90;;;9.80;99.50;;;;;;5093170;28;20274;-85
2023/02/24 05:39:25;;;;;;;36.13;28.13;;;9.70;99.20;;;;;;5096910;28;20606;-86
2023/02/24 05:41:53;;;;;;;34.53;27.37;;;9.70;97.90;;;;;;5094663;28;20286;-84
2023/02/24 05:44:24;;;;;;;36.30;29.07;;;9.70;97.70;;;;;;5088226;28;20194;-84
2023/02/24 05:46:57;;;;;;;38.60;28.97;;;9.80;97.00;;;;;;5080324;28;20230;-86
2023/02/24 05:49:31;;;;;;;35.30;27.30;;;9.70;96.60;;;;;;5097620;28;20256;-86
2023/02/24 05:52:00;;;;;;;36.87;28.90;;;9.70;97.70;;;;;;5080701;28;20181;-86
2023/02/24 05:54:34;;;;;;;33.87;28.60;;;9.60;98.60;;;;;;5099670;28;20651;-89
2023/02/24 05:57:04;;;;;;;36.33;28.13;;;9.60;96.80;;;;;;5077509;28;20216;-86
2023/02/24 05:59:33;;;;;;;31.63;25.83;;;9.60;98.00;;;;;;5076251;28;20205;-87
2023/02/24 06:02:07;;;;;;;37.90;28.93;;;9.60;98.70;;;;;;5078795;28;20200;-87
2023/02/24 06:04:38;;;;;;;37.13;28.57;;;9.60;98.20;;;;;;5080394;28;20162;-87
2023/02/24 06:07:23;;;;;;;36.57;26.47;;;9.50;97.60;;;;;;5084268;28;20190;-85
2023/02/24 06:09:56;;;;;;;38.90;29.43;;;9.60;98.10;;;;;;5083261;28;20200;-86
2023/02/24 06:12:26;;;;;;;33.60;27.40;;;9.60;96.10;;;;;;5085774;28;20168;-87
2023/02/24 06:14:52;;;;;;;39.20;28.80;;;9.60;96.20;;;;;;5081631;28;20255;-86
2023/02/24 06:17:19;;;;;;;36.77;25.27;;;9.60;94.20;;;;;;5084667;28;20237;-87
2023/02/24 06:19:48;;;;;;;32.00;25.60;;;9.60;95.20;;;;;;5088603;28;20216;-86
2023/02/24 06:22:18;;;;;;;34.97;26.00;;;9.70;94.70;;;;;;5087531;28;20226;-86
2023/02/24 06:24:44;;;;;;;34.87;26.67;;;9.60;93.50;;;;;;5090131;28;20177;-87
2023/02/24 06:27:18;;;;;;;32.20;24.17;;;9.60;94.40;;;;;;5087759;28;20635;-87
2023/02/24 06:29:48;;;;;;;32.30;24.30;;;9.60;96.00;;;;;;5086590;28;20233;-87
2023/02/24 06:32:18;;;;;;;33.43;26.23;;;9.50;96.00;;;;;;5086606;28;20181;-87
2023/02/24 06:34:43;;;;;;;33.87;25.00;;;9.60;95.30;;;;;;5066415;28;20250;-85
2023/02/24 06:37:12;;;;;;;32.93;25.67;;;9.60;95.30;;;;;;5080664;28;20200;-87
2023/02/24 06:39:38;;;;;;;34.33;26.20;;;9.60;93.80;;;;;;5085814;28;20231;-86
2023/02/24 06:42:07;;;;;;;33.50;25.63;;;9.70;93.10;;;;;;5067733;28;20271;-85
2023/02/24 06:44:35;;;;;;;34.03;26.40;;;9.70;93.60;;;;;;5091071;28;20187;-86
2023/02/24 06:47:01;;;;;;;32.13;24.87;;;9.60;93.00;;;;;;5072473;28;20188;-86
2023/02/24 06:49:27;;;;;;;34.27;26.03;;;9.60;94.10;;;;;;5084101;28;20260;-86
2023/02/24 06:51:54;;;;;;;32.40;24.43;;;9.60;94.50;;;;;;5082362;28;20236;-88
2023/02/24 06:54:24;;;;;;;30.90;24.70;;;9.60;96.20;;;;;;5082791;28;20596;-87
2023/02/24 06:56:51;;;;;;;32.10;24.80;;;9.60;97.00;;;;;;5083800;28;20268;-86
2023/02/24 06:59:38;;;;;;;35.00;27.87;;;9.60;95.80;;;;;;5083441;28;20202;-87
2023/02/24 07:02:03;;;;;;;34.03;26.73;;;9.70;95.10;;;;;;5076892;28;20233;-86
2023/02/24 07:04:28;;;;;;;31.10;26.50;;;9.70;94.30;;;;;;5084918;28;20204;-85
2023/02/24 07:06:57;;;;;;;30.50;25.03;;;9.70;93.90;;;;;;5088631;28;20183;-87
2023/02/24 07:09:25;;;;;;;31.77;24.73;;;9.70;96.00;;;;;;5084875;28;20229;-86
2023/02/24 07:11:52;;;;;;;29.23;24.80;;;9.70;98.20;;;;;;5082539;28;20184;-86
2023/02/24 07:14:20;;;;;;;30.97;22.53;;;9.80;97.10;;;;;;5083149;28;20183;-87
2023/02/24 07:16:51;;;;;;;36.93;25.40;;;9.70;98.50;;;;;;5088409;28;20652;-86
2023/02/24 07:19:19;;;;;;;28.70;23.50;;;9.70;98.70;;;;;;5067341;28;20261;-88
2023/02/24 07:21:58;;;;;;;35.77;23.60;;;9.70;98.70;;;;;;5083095;28;20235;-87
2023/02/24 07:24:31;;;;;;;30.60;24.87;;;9.60;96.30;;;;;;5099277;28;20178;-86
2023/02/24 07:27:03;;;;;;;27.33;22.07;;;9.60;96.10;;;;;;5066211;28;20186;-87
2023/02/24 07:29:31;;;;;;;28.67;23.67;;;9.70;96.70;;;;;;5069473;28;20205;-86
2023/02/24 07:32:02;;;;;;;32.23;25.00;;;9.80;95.00;;;;;;5084512;28;20183;-87
2023/02/24 07:34:29;;;;;;;34.70;23.93;;;9.80;92.50;;;;;;5084102;28;20192;-87
2023/02/24 07:36:55;;;;;;;32.53;23.80;;;9.80;93.90;;;;;;5096742;28;20177;-85
2023/02/24 07:39:23;;;;;;;30.87;25.00;;;9.80;94.60;;;;;;5090045;28;20230;-87
2023/02/24 07:41:51;;;;;;;29.90;23.67;;;9.60;95.70;;;;;;5072405;28;20240;-88
2023/02/24 07:44:19;;;;;;;31.70;24.17;;;9.70;96.30;;;;;;5072657;28;20194;-89
2023/02/24 07:46:47;;;;;;;30.90;24.27;;;9.60;95.10;;;;;;5090486;28;20199;-85
2023/02/24 07:49:17;;;;;;;31.03;23.37;;;9.60;95.10;;;;;;5100307;28;20197;-88
2023/02/24 07:51:42;;;;;;;36.13;27.10;;;9.60;95.20;;;;;;5092919;28;20192;-89
2023/02/24 07:54:10;;;;;;;29.70;22.83;;;9.60;94.70;;;;;;5076438;28;20195;-89
2023/02/24 07:56:44;;;;;;;32.97;24.83;;;9.70;94.50;;;;;;5094499;28;20212;-86
2023/02/24 07:59:14;;;;;;;33.53;25.90;;;9.90;92.20;;;;;;5090031;28;20201;-87
2023/02/24 08:01:48;;;;;;;30.47;24.20;;;10.00;91.00;;;;;;5076850;28;20290;-85
2023/02/24 08:04:16;;;;;;;32.30;26.90;;;10.00;92.10;;;;;;5066186;28;20181;-87
2023/02/24 08:06:49;;;;;;;33.80;26.80;;;10.10;92.50;;;;;;5043466;28;20192;-86
2023/02/24 08:09:45;;;;;;;34.17;27.63;;;10.10;92.90;;;;;;5067954;28;20195;-87
2023/02/24 08:12:08;;;;;;;33.77;27.13;;;10.00;91.90;;;;;;5064787;28;20187;-85
2023/02/24 08:14:34;;;;;;;34.60;26.63;;;10.00;91.30;;;;;;5046402;28;20395;-88
2023/02/24 08:17:04;;;;;;;35.20;26.50;;;10.10;91.50;;;;;;5065547;28;20183;-87
2023/02/24 08:19:32;;;;;;;31.30;24.23;;;10.20;90.90;;;;;;5067866;28;20292;-86
2023/02/24 08:22:18;;;;;;;32.00;26.20;;;10.20;90.80;;;;;;5062646;28;20215;-85
2023/02/24 08:24:51;;;;;;;35.40;26.93;;;10.10;90.70;;;;;;5063245;28;20199;-86
2023/02/24 08:27:22;;;;;;;34.47;27.50;;;10.10;90.40;;;;;;5061565;28;20200;-86
2023/02/24 08:30:00;;;;;;;32.33;24.97;;;10.20;89.80;;;;;;5051042;28;20211;-87
2023/02/24 08:32:32;;;;;;;32.63;24.37;;;10.10;91.10;;;;;;5042974;28;20220;-87
2023/02/24 08:35:01;;;;;;;35.47;26.90;;;10.20;90.20;;;;;;5050723;28;20201;-87
2023/02/24 08:37:33;;;;;;;34.90;27.83;;;10.20;89.70;;;;;;5080534;28;20216;-87
2023/02/24 08:39:59;;;;;;;32.17;24.43;;;10.20;89.80;;;;;;5079237;28;20736;-86
2023/02/24 08:42:33;;;;;;;36.60;27.27;;;10.10;90.30;;;;;;5074987;28;20752;-86
2023/02/24 08:45:00;;;;;;;31.17;25.73;;;10.10;89.90;;;;;;5072184;28;20178;-87
2023/02/24 08:47:29;;;;;;;32.97;25.53;;;10.20;90.90;;;;;;5075073;28;20192;-87
2023/02/24 08:50:00;;;;;;;35.87;26.97;;;10.20;89.70;;;;;;5067196;28;20203;-86
2023/02/24 08:52:27;;;;;;;32.53;24.67;;;10.10;89.70;;;;;;5080214;28;20179;-85
2023/02/24 08:54:58;;;;;;;31.57;24.80;;;10.10;90.70;;;;;;5063923;28;20193;-87
2023/02/24 08:57:27;;;;;;;30.70;24.50;;;10.10;90.70;;;;;;5071629;28;20225;-87
2023/02/24 08:59:56;;;;;;;37.20;27.23;;;10.10;91.10;;;;;;5070884;28;20233;-85
2023/02/24 09:02:28;;;;;;;35.20;24.33;;;10.30;90.40;;;;;;5083497;28;20194;-86
2023/02/24 09:04:57;;;;;;;30.57;24.63;;;10.30;89.70;;;;;;5093061;28;20175;-89
2023/02/24 09:07:34;;;;;;;33.00;25.07;;;10.20;89.20;;;;;;5095551;28;20179;-88
2023/02/24 09:10:01;;;;;;;29.97;22.23;;;10.30;88.10;;;;;;5080981;28;20265;-86
2023/02/24 09:12:28;;;;;;;30.27;22.97;;;10.30;88.50;;;;;;5086243;28;20201;-84
2023/02/24 09:14:59;;;;;;;26.83;22.17;;;10.40;86.80;;;;;;5063210;28;20606;-85
2023/02/24 09:17:39;;;;;;;31.70;24.27;;;10.30;87.50;;;;;;5084595;28;20183;-85
2023/02/24 09:20:54;;;;;;;31.27;23.47;;;10.30;87.90;;;;;;5079576;28;20493;-85
2023/02/24 09:23:02;;;;;;;31.63;23.63;;;10.20;88.20;;;;;;5083915;28;20220;-87
2023/02/24 09:25:39;;;;;;;30.90;23.87;;;10.20;89.40;;;;;;5084715;28;20228;-87
2023/02/24 09:28:15;;;;;;;31.43;24.67;;;10.30;88.60;;;;;;5090795;28;20231;-87
2023/02/24 09:30:49;;;;;;;29.87;23.00;;;10.30;89.00;;;;;;5065797;28;20206;-87
2023/02/24 09:33:19;;;;;;;28.33;23.10;;;10.20;90.20;;;;;;5093524;28;20255;-88
2023/02/24 09:36:09;;;;;;;32.87;24.10;;;10.20;89.90;;;;;;5098859;28;20193;-85
2023/02/24 09:39:08;;;;;;;32.67;23.63;;;10.20;87.30;;;;;;5092595;28;20194;-85
2023/02/24 09:41:52;;;;;;;35.10;23.93;;;10.20;88.00;;;;;;5080759;28;20199;-87
2023/02/24 09:44:24;;;;;;;31.57;23.77;;;10.10;91.00;;;;;;5066333;28;20178;-87
2023/02/24 09:47:55;;;;;;;34.40;24.53;;;9.90;91.90;;;;;;5095766;28;20170;-87
2023/02/24 09:50:36;;;;;;;32.50;23.57;;;9.80;93.40;;;;;;5096567;28;20217;-89
2023/02/24 09:53:18;;;;;;;28.70;23.43;;;9.80;92.90;;;;;;5083230;28;20183;-86
2023/02/24 09:56:02;;;;;;;32.73;23.97;;;10.00;90.70;;;;;;5088950;28;20191;-86
2023/02/24 09:58:48;;;;;;;31.80;23.73;;;10.10;90.00;;;;;;5084827;28;20263;-87
2023/02/24 10:01:32;;;;;;;33.00;25.07;;;10.00;91.20;;;;;;5082597;28;20234;-86
2023/02/24 10:04:32;;;;;;;34.60;25.77;;;10.00;89.40;;;;;;5084580;28;20641;-87
2023/02/24 10:07:14;;;;;;;31.47;23.13;;;9.80;90.90;;;;;;5084375;28;20189;-89
2023/02/24 10:10:18;;;;;;;31.30;25.13;;;9.90;90.70;;;;;;5087926;28;20229;-87
2023/02/24 10:12:51;;;;;;;28.57;21.83;;;9.80;88.70;;;;;;5066281;28;20202;-86
2023/02/24 10:15:43;;;;;;;29.97;23.77;;;9.80;90.80;;;;;;5085585;28;20285;-87
2023/02/24 10:18:59;;;;;;;29.00;22.40;;;10.00;87.80;;;;;;5086593;28;20214;-88
2023/02/24 10:22:05;;;;;;;29.73;22.97;;;10.00;88.10;;;;;;5050811;28;20224;-87
2023/02/24 10:24:40;;;;;;;33.13;24.63;;;10.10;89.20;;;;;;5082969;28;20244;-86
2023/02/24 10:27:22;;;;;;;37.17;25.00;;;10.00;89.80;;;;;;5089591;28;20188;-88
2023/02/24 10:30:18;;;;;;;35.60;25.07;;;9.90;91.40;;;;;;5093422;28;20198;-87
2023/02/24 10:33:00;;;;;;;37.17;25.93;;;9.80;90.20;;;;;;5077255;28;20178;-89
2023/02/24 10:35:32;;;;;;;34.60;26.10;;;9.80;93.60;;;;;;5074036;28;20613;-85
2023/02/24 10:38:04;;;;;;;35.13;26.73;;;10.00;90.30;;;;;;5087966;28;20186;-88
2023/02/24 10:40:43;;;;;;;36.77;26.90;;;9.90;91.80;;;;;;5084794;28;20218;-87
2023/02/24 10:43:16;;;;;;;40.93;28.17;;;10.00;94.60;;;;;;5084405;28;20208;-86
2023/02/24 10:45:44;;;;;;;35.33;27.40;;;10.00;92.40;;;;;;5084036;28;20166;-86
2023/02/24 10:48:23;;;;;;;38.00;27.10;;;10.20;90.60;;;;;;5089857;28;20187;-86
2023/02/24 10:50:53;;;;;;;35.73;25.80;;;10.10;92.00;;;;;;5092276;28;20283;-86
2023/02/24 10:53:27;;;;;;;36.37;27.40;;;10.10;92.80;;;;;;5084041;28;20176;-87
2023/02/24 11:01:26;;;;;;;36.50;26.00;;;9.80;93.50;;;;;;5100809;28;20218;-87
2023/02/24 11:04:01;;;;;;;41.00;27.77;;;9.90;91.90;;;;;;5084445;28;20274;-86
2023/02/24 11:06:40;;;;;;;36.53;26.60;;;10.10;91.10;;;;;;5087918;28;20171;-87
2023/02/24 11:17:52;;;;;;;36.63;28.50;;;10.50;91.00;;;;;;5091184;28;20532;-86
2023/02/24 11:20:41;;;;;;;35.33;27.23;;;10.60;90.00;;;;;;5093015;28;20210;-88
2023/02/24 11:23:13;;;;;;;42.07;28.57;;;10.70;89.30;;;;;;5083993;28;20274;-89
2023/02/24 11:25:44;;;;;;;38.43;28.63;;;10.90;88.90;;;;;;5082428;28;20172;-87
2023/02/24 11:28:39;;;;;;;38.90;29.07;;;10.70;90.70;;;;;;5082386;28;20168;-87
2023/02/24 11:31:32;;;;;;;38.67;27.97;;;10.70;89.30;;;;;;5010319;28;20264;-86
2023/02/24 11:34:09;;;;;;;40.93;28.63;;;10.40;91.80;;;;;;5049159;28;20199;-87
2023/02/24 11:36:38;;;;;;;40.43;29.03;;;10.30;92.20;;;;;;5068725;28;20263;-87
2023/02/24 11:39:21;;;;;;;41.33;28.73;;;10.30;93.40;;;;;;5067823;28;20180;-87
2023/02/24 11:41:51;;;;;;;47.30;29.00;;;10.30;93.40;;;;;;5049253;28;20246;-87
2023/02/24 11:44:18;;;;;;;39.63;26.97;;;10.60;91.50;;;;;;5067277;28;20195;-86
2023/02/24 11:46:51;;;;;;;41.47;29.60;;;10.70;89.50;;;;;;5069907;28;20179;-88
2023/02/24 11:49:36;;;;;;;41.33;29.37;;;10.80;90.30;;;;;;5048982;28;20299;-85
2023/02/24 11:52:07;;;;;;;37.23;27.33;;;10.90;92.80;;;;;;5049975;28;20262;-85
2023/02/24 11:54:40;;;;;;;37.83;28.63;;;11.10;90.70;;;;;;5031424;28;20198;-86
2023/02/24 11:57:14;;;;;;;37.33;27.17;;;11.40;89.10;;;;;;5076419;28;20188;-88
2023/02/24 11:59:44;;;;;;;39.83;29.60;;;11.30;88.30;;;;;;5051284;28;20357;-87
2023/02/24 12:03:00;;;;;;;40.80;29.57;;;11.10;92.90;;;;;;5071606;28;20228;-86
2023/02/24 12:05:35;;;;;;;40.70;29.07;;;11.10;89.10;;;;;;5034982;28;20263;-87
2023/02/24 12:08:21;;;;;;;36.47;27.87;;;11.30;88.40;;;;;;5068557;28;20164;-88
2023/02/24 12:10:57;;;;;;;38.73;29.23;;;11.30;89.60;;;;;;5054057;28;20218;-85
2023/02/24 12:13:46;;;;;;;42.23;30.40;;;11.30;89.60;;;;;;5068227;28;20663;-86
2023/02/24 12:16:32;;;;;;;41.57;28.40;;;11.20;90.10;;;;;;5073819;28;20453;-87
2023/02/24 12:19:03;;;;;;;41.53;29.67;;;11.10;91.40;;;;;;5089372;28;20205;-88
2023/02/24 12:21:38;;;;;;;43.80;29.80;;;11.10;91.40;;;;;;5070894;28;20197;-89
2023/02/24 12:24:11;;;;;;;37.70;28.33;;;11.00;92.10;;;;;;5078132;28;20181;-87
2023/02/24 12:26:46;;;;;;;37.20;27.00;;;10.90;92.20;;;;;;5070200;28;20641;-87
2023/02/24 12:29:41;;;;;;;37.20;27.83;;;10.90;91.80;;;;;;5068072;28;20208;-89
2023/02/24 12:32:25;;;;;;;46.87;30.17;;;10.80;93.60;;;;;;5071512;28;20203;-86
2023/02/24 12:35:07;;;;;;;40.03;29.93;;;10.50;96.70;;;;;;5050360;28;20214;-87
2023/02/24 12:37:53;;;;;;;38.07;27.97;;;10.60;96.50;;;;;;5071390;28;20207;-87
2023/02/24 12:40:33;;;;;;;43.03;28.63;;;10.70;94.40;;;;;;5073609;28;20733;-87
2023/02/24 12:43:15;;;;;;;41.77;27.53;;;10.70;94.40;;;;;;5052314;28;20215;-90
2023/02/24 12:46:06;;;;;;;40.87;29.47;;;10.70;95.40;;;;;;5073674;28;20183;-88
2023/02/24 12:48:59;;;;;;;40.40;29.20;;;10.70;95.30;;;;;;5056939;28;20172;-89
2023/02/24 12:51:57;;;;;;;44.63;30.43;;;10.60;95.60;;;;;;5059535;28;20192;-88
2023/02/24 12:54:28;;;;;;;36.40;28.00;;;10.50;97.10;;;;;;5070045;28;20195;-87
2023/02/24 12:57:11;;;;;;;41.70;30.00;;;10.60;95.80;;;;;;5072643;28;20818;-87
2023/02/24 12:59:39;;;;;;;42.33;28.07;;;10.30;97.30;;;;;;5070648;28;20583;-89
2023/02/24 13:02:41;;;;;;;42.70;29.17;;;10.40;97.80;;;;;;5069454;28;20242;-87
2023/02/24 13:05:27;;;;;;;40.33;28.53;;;10.60;96.30;;;;;;5069609;28;20190;-87
2023/02/24 13:08:15;;;;;;;39.33;29.10;;;10.50;95.80;;;;;;5071326;28;20186;-86
2023/02/24 13:10:49;;;;;;;39.30;27.57;;;10.50;97.20;;;;;;5074623;28;20549;-86
2023/02/24 13:13:39;;;;;;;35.00;25.27;;;10.70;94.00;;;;;;5078433;28;20236;-88
2023/02/24 13:16:05;;;;;;;36.40;26.17;;;10.70;94.00;;;;;;5069686;28;20224;-87
2023/02/24 13:18:38;;;;;;;34.10;25.00;;;10.70;94.10;;;;;;5049148;28;20199;-86
2023/02/24 13:21:21;;;;;;;33.87;24.87;;;10.60;94.60;;;;;;5052447;28;20227;-88
2023/02/24 13:23:59;;;;;;;36.07;26.40;;;10.70;93.20;;;;;;5069765;28;20225;-84
2023/02/24 13:26:27;;;;;;;32.67;25.50;;;10.80;92.70;;;;;;5076445;28;20179;-86
2023/02/24 13:29:10;;;;;;;33.63;24.30;;;10.80;93.30;;;;;;5078540;28;20172;-86